Ophiem, IL (61468)

6:00 AM CST on February 01, 2015 (GMT -0600)
Old Schoolhouse Lane | Change Station
CLOSE
Current Station
Personal Weather Station
Location: Ophiem, IL
Elevation: 696 ft
Nearby Weather Stations
Active Advisory: Winter Storm Warning

Elev 696 ft 41.25 °N, 90.38 °W | Updated 23 seconds ago

Snow
Snow
32.9 °F
Feels Like 33 °F
N
0.0
Wind Variable Wind from SE
Gusts 0.0 mph

Today
High -- | Low -- °F
--% Chance of Precip.
Yesterday
High -- | Low -- °F
Precip. -- in
7:12 AM 5:17 PM
Waxing Gibbous, 94% visible
Pressure 29.87 in
Visibility 0.8 miles
Clouds Scattered Clouds 400 ft
Overcast 800 ft
Windchill 33 °F
Dew Point 32 °F
Humidity 98%
Rainfall 0.00 in
Snow Depth Not available.
UV 0 out of 12
Pollen .10 out of 12
Air Quality Not available.
Flu Activity Not available.
METAR KMLI 011152Z 07011KT 3/4SM R09/5500V6000FT -SN BR SCT004 OVC008 00/M01 A2985 RMK AO2 SLP115 P0008 60048 70083 T00001006 10006 20000 56028 $

More Conditions Fewer Conditions

Pressure 29.87 in
Visibility 0.8 miles
Clouds Scattered Clouds 400 ft
Overcast 800 ft
Windchill 33 °F
Dew Point 32 °F
Humidity 98%
Rainfall 0.00 in
Snow Depth Not available.
UV 0 out of 12
Pollen .10 out of 12
Air Quality Not available.
Flu Activity Not available.
METAR KMLI 011152Z 07011KT 3/4SM R09/5500V6000FT -SN BR SCT004 OVC008 00/M01 A2985 RMK AO2 SLP115 P0008 60048 70083 T00001006 10006 20000 56028 $

More Conditions Fewer Conditions

10-Day Weather Forecast

Almanac

Astronomy

Feb. 01, 2015 Rise Set
Actual Time
Civil Twilight
Nautical Twilight
Astronomical Twilight
Moon
Length of Visible Light
Length of Day
Tomorrow will be .
, % of the Moon is Illuminated

Today's Extremes

State Highs State Lows

Community

WunderPhotos

Upload Photos

1,792,348 photos uploaded!

WunderBlogs® & News

Nearby

Air Quality

  Air Quality AQ Index Pollutant
Not available.

Snow Depth

Station Depth Elevation

Earthquake Activity

City Distance Mag. Time & Date
Minimum magnitude displayed is 2.5.

Coastal Water Temperatures

Place Temperature

Nearby Weather Stations